sensor_id;sensor_type;location;lat;lon;timestamp;P1;durP1;ratioP1;P2;durP2;ratioP2
43152;SDS011;28756;49.064;9.290;2023-12-04T00:02:10;13.13;;;8.77;;
43152;SDS011;28756;49.064;9.290;2023-12-04T00:04:36;13.35;;;8.75;;
43152;SDS011;28756;49.064;9.290;2023-12-04T00:07:01;13.35;;;8.32;;
43152;SDS011;28756;49.064;9.290;2023-12-04T00:09:27;14.10;;;8.90;;
43152;SDS011;28756;49.064;9.290;2023-12-04T00:11:53;14.05;;;8.23;;
43152;SDS011;28756;49.064;9.290;2023-12-04T00:14:18;12.32;;;8.40;;
43152;SDS011;28756;49.064;9.290;2023-12-04T00:16:44;14.82;;;8.82;;
43152;SDS011;28756;49.064;9.290;2023-12-04T00:19:09;20.33;;;10.45;;
43152;SDS011;28756;49.064;9.290;2023-12-04T00:21:35;18.67;;;9.48;;
43152;SDS011;28756;49.064;9.290;2023-12-04T00:24:01;20.83;;;10.10;;
43152;SDS011;28756;49.064;9.290;2023-12-04T00:26:26;21.65;;;11.57;;
43152;SDS011;28756;49.064;9.290;2023-12-04T00:28:52;26.27;;;12.07;;
43152;SDS011;28756;49.064;9.290;2023-12-04T00:31:17;23.65;;;12.13;;
43152;SDS011;28756;49.064;9.290;2023-12-04T00:33:43;22.30;;;10.95;;
43152;SDS011;28756;49.064;9.290;2023-12-04T00:36:09;15.65;;;9.40;;
43152;SDS011;28756;49.064;9.290;2023-12-04T00:38:35;13.18;;;8.27;;
43152;SDS011;28756;49.064;9.290;2023-12-04T00:41:00;14.50;;;8.18;;
43152;SDS011;28756;49.064;9.290;2023-12-04T00:43:26;12.10;;;7.40;;
43152;SDS011;28756;49.064;9.290;2023-12-04T00:45:51;11.98;;;7.65;;
43152;SDS011;28756;49.064;9.290;2023-12-04T00:48:17;14.57;;;8.95;;
43152;SDS011;28756;49.064;9.290;2023-12-04T00:50:42;14.75;;;9.25;;
43152;SDS011;28756;49.064;9.290;2023-12-04T00:53:08;13.82;;;8.40;;
43152;SDS011;28756;49.064;9.290;2023-12-04T00:55:34;11.38;;;7.50;;
43152;SDS011;28756;49.064;9.290;2023-12-04T00:57:59;14.60;;;8.90;;
43152;SDS011;28756;49.064;9.290;2023-12-04T01:00:25;16.08;;;9.50;;
43152;SDS011;28756;49.064;9.290;2023-12-04T01:02:51;11.77;;;7.35;;
43152;SDS011;28756;49.064;9.290;2023-12-04T01:05:16;10.45;;;6.72;;
43152;SDS011;28756;49.064;9.290;2023-12-04T01:07:42;12.27;;;7.00;;
43152;SDS011;28756;49.064;9.290;2023-12-04T01:10:08;11.75;;;6.75;;
43152;SDS011;28756;49.064;9.290;2023-12-04T01:12:33;9.75;;;6.55;;
43152;SDS011;28756;49.064;9.290;2023-12-04T01:15:00;11.68;;;7.10;;
43152;SDS011;28756;49.064;9.290;2023-12-04T01:17:26;10.18;;;6.20;;
43152;SDS011;28756;49.064;9.290;2023-12-04T01:19:52;10.43;;;5.63;;
43152;SDS011;28756;49.064;9.290;2023-12-04T01:22:17;10.23;;;6.22;;
43152;SDS011;28756;49.064;9.290;2023-12-04T01:24:43;9.52;;;6.07;;
43152;SDS011;28756;49.064;9.290;2023-12-04T01:27:08;10.05;;;6.63;;
43152;SDS011;28756;49.064;9.290;2023-12-04T01:29:34;12.45;;;7.22;;
43152;SDS011;28756;49.064;9.290;2023-12-04T01:32:00;10.85;;;6.40;;
43152;SDS011;28756;49.064;9.290;2023-12-04T01:34:25;10.27;;;6.35;;
43152;SDS011;28756;49.064;9.290;2023-12-04T01:36:51;9.45;;;6.53;;
43152;SDS011;28756;49.064;9.290;2023-12-04T01:39:16;11.77;;;6.72;;
43152;SDS011;28756;49.064;9.290;2023-12-04T01:41:42;10.10;;;6.60;;
43152;SDS011;28756;49.064;9.290;2023-12-04T01:44:08;8.98;;;5.63;;
43152;SDS011;28756;49.064;9.290;2023-12-04T01:46:33;9.43;;;5.90;;
43152;SDS011;28756;49.064;9.290;2023-12-04T01:48:59;8.93;;;5.85;;
43152;SDS011;28756;49.064;9.290;2023-12-04T01:51:26;9.40;;;5.63;;
43152;SDS011;28756;49.064;9.290;2023-12-04T01:53:51;8.75;;;5.65;;
43152;SDS011;28756;49.064;9.290;2023-12-04T01:56:18;8.75;;;5.82;;
43152;SDS011;28756;49.064;9.290;2023-12-04T01:58:45;9.52;;;6.05;;
43152;SDS011;28756;49.064;9.290;2023-12-04T02:01:11;9.38;;;5.50;;
43152;SDS011;28756;49.064;9.290;2023-12-04T02:03:37;10.05;;;6.40;;
43152;SDS011;28756;49.064;9.290;2023-12-04T02:06:03;9.20;;;5.93;;
43152;SDS011;28756;49.064;9.290;2023-12-04T02:08:30;8.38;;;5.65;;
43152;SDS011;28756;49.064;9.290;2023-12-04T02:10:56;10.23;;;5.53;;
43152;SDS011;28756;49.064;9.290;2023-12-04T02:13:21;11.40;;;7.07;;
43152;SDS011;28756;49.064;9.290;2023-12-04T02:15:48;12.10;;;7.30;;
43152;SDS011;28756;49.064;9.290;2023-12-04T02:18:15;11.98;;;7.20;;
43152;SDS011;28756;49.064;9.290;2023-12-04T02:20:41;10.07;;;5.93;;
43152;SDS011;28756;49.064;9.290;2023-12-04T02:23:08;9.48;;;5.93;;
43152;SDS011;28756;49.064;9.290;2023-12-04T02:25:33;10.98;;;6.75;;
43152;SDS011;28756;49.064;9.290;2023-12-04T02:27:59;10.10;;;6.50;;
43152;SDS011;28756;49.064;9.290;2023-12-04T02:30:28;9.23;;;6.05;;
43152;SDS011;28756;49.064;9.290;2023-12-04T02:32:55;7.95;;;5.35;;
43152;SDS011;28756;49.064;9.290;2023-12-04T02:35:23;9.35;;;6.05;;
43152;SDS011;28756;49.064;9.290;2023-12-04T02:37:51;9.75;;;5.88;;
43152;SDS011;28756;49.064;9.290;2023-12-04T02:40:17;8.90;;;5.65;;
43152;SDS011;28756;49.064;9.290;2023-12-04T02:42:44;8.18;;;5.28;;
43152;SDS011;28756;49.064;9.290;2023-12-04T02:45:09;7.68;;;4.90;;
43152;SDS011;28756;49.064;9.290;2023-12-04T02:47:35;9.05;;;5.93;;
43152;SDS011;28756;49.064;9.290;2023-12-04T02:50:01;8.93;;;5.90;;
43152;SDS011;28756;49.064;9.290;2023-12-04T02:52:26;10.35;;;6.35;;
43152;SDS011;28756;49.064;9.290;2023-12-04T02:54:52;10.52;;;6.00;;
43152;SDS011;28756;49.064;9.290;2023-12-04T02:57:17;9.55;;;5.45;;
43152;SDS011;28756;49.064;9.290;2023-12-04T02:59:43;8.27;;;5.20;;
43152;SDS011;28756;49.064;9.290;2023-12-04T03:02:08;9.98;;;6.20;;
43152;SDS011;28756;49.064;9.290;2023-12-04T03:04:34;11.18;;;6.57;;
43152;SDS011;28756;49.064;9.290;2023-12-04T03:07:00;9.95;;;6.15;;
43152;SDS011;28756;49.064;9.290;2023-12-04T03:09:26;8.35;;;5.80;;
43152;SDS011;28756;49.064;9.290;2023-12-04T03:11:51;11.23;;;6.68;;
43152;SDS011;28756;49.064;9.290;2023-12-04T03:14:17;10.15;;;6.15;;
43152;SDS011;28756;49.064;9.290;2023-12-04T03:16:42;8.43;;;5.40;;
43152;SDS011;28756;49.064;9.290;2023-12-04T03:19:08;8.40;;;5.57;;
43152;SDS011;28756;49.064;9.290;2023-12-04T03:21:33;10.23;;;6.43;;
43152;SDS011;28756;49.064;9.290;2023-12-04T03:23:59;10.10;;;6.53;;
43152;SDS011;28756;49.064;9.290;2023-12-04T03:26:25;10.48;;;6.35;;
43152;SDS011;28756;49.064;9.290;2023-12-04T03:28:50;7.22;;;4.93;;
43152;SDS011;28756;49.064;9.290;2023-12-04T03:31:16;10.63;;;6.30;;
43152;SDS011;28756;49.064;9.290;2023-12-04T03:33:41;10.98;;;6.57;;
43152;SDS011;28756;49.064;9.290;2023-12-04T03:36:07;9.05;;;5.47;;
43152;SDS011;28756;49.064;9.290;2023-12-04T03:38:33;8.00;;;5.35;;
43152;SDS011;28756;49.064;9.290;2023-12-04T03:40:59;8.85;;;5.40;;
43152;SDS011;28756;49.064;9.290;2023-12-04T03:43:24;8.82;;;5.32;;
43152;SDS011;28756;49.064;9.290;2023-12-04T03:45:50;11.77;;;6.78;;
43152;SDS011;28756;49.064;9.290;2023-12-04T03:48:15;9.43;;;5.88;;
43152;SDS011;28756;49.064;9.290;2023-12-04T03:50:41;9.10;;;6.15;;
43152;SDS011;28756;49.064;9.290;2023-12-04T03:53:07;8.13;;;5.45;;
43152;SDS011;28756;49.064;9.290;2023-12-04T03:55:32;9.07;;;5.95;;
43152;SDS011;28756;49.064;9.290;2023-12-04T03:57:58;9.57;;;5.68;;
43152;SDS011;28756;49.064;9.290;2023-12-04T04:00:24;10.85;;;6.45;;
43152;SDS011;28756;49.064;9.290;2023-12-04T04:02:49;10.52;;;6.30;;
43152;SDS011;28756;49.064;9.290;2023-12-04T04:05:15;10.65;;;6.30;;
43152;SDS011;28756;49.064;9.290;2023-12-04T04:07:41;11.15;;;6.95;;
43152;SDS011;28756;49.064;9.290;2023-12-04T04:10:07;12.23;;;7.20;;
43152;SDS011;28756;49.064;9.290;2023-12-04T04:12:33;10.05;;;6.45;;
43152;SDS011;28756;49.064;9.290;2023-12-04T04:14:59;10.80;;;6.72;;
43152;SDS011;28756;49.064;9.290;2023-12-04T04:17:24;10.40;;;6.32;;
43152;SDS011;28756;49.064;9.290;2023-12-04T04:19:53;8.93;;;6.03;;
43152;SDS011;28756;49.064;9.290;2023-12-04T04:22:19;11.48;;;6.70;;
43152;SDS011;28756;49.064;9.290;2023-12-04T04:24:45;13.85;;;7.97;;
43152;SDS011;28756;49.064;9.290;2023-12-04T04:27:11;12.40;;;7.90;;
43152;SDS011;28756;49.064;9.290;2023-12-04T04:29:36;11.85;;;7.28;;
43152;SDS011;28756;49.064;9.290;2023-12-04T04:32:02;12.93;;;7.95;;
43152;SDS011;28756;49.064;9.290;2023-12-04T04:34:28;10.30;;;6.63;;
43152;SDS011;28756;49.064;9.290;2023-12-04T04:36:54;10.98;;;6.82;;
43152;SDS011;28756;49.064;9.290;2023-12-04T04:39:19;10.35;;;6.55;;
43152;SDS011;28756;49.064;9.290;2023-12-04T04:41:45;8.75;;;6.35;;
43152;SDS011;28756;49.064;9.290;2023-12-04T04:44:10;8.43;;;5.78;;
43152;SDS011;28756;49.064;9.290;2023-12-04T04:46:36;8.15;;;5.72;;
43152;SDS011;28756;49.064;9.290;2023-12-04T04:49:01;9.32;;;5.60;;
43152;SDS011;28756;49.064;9.290;2023-12-04T04:51:27;9.32;;;5.72;;
43152;SDS011;28756;49.064;9.290;2023-12-04T04:53:54;9.35;;;5.88;;
43152;SDS011;28756;49.064;9.290;2023-12-04T04:56:20;8.32;;;5.40;;
43152;SDS011;28756;49.064;9.290;2023-12-04T04:58:46;9.55;;;5.90;;
43152;SDS011;28756;49.064;9.290;2023-12-04T05:01:11;10.25;;;6.53;;
43152;SDS011;28756;49.064;9.290;2023-12-04T05:03:37;9.75;;;6.22;;
43152;SDS011;28756;49.064;9.290;2023-12-04T05:06:03;8.80;;;5.72;;
43152;SDS011;28756;49.064;9.290;2023-12-04T05:08:29;9.43;;;6.43;;
43152;SDS011;28756;49.064;9.290;2023-12-04T05:10:54;8.93;;;5.75;;
43152;SDS011;28756;49.064;9.290;2023-12-04T05:13:20;9.30;;;6.18;;
43152;SDS011;28756;49.064;9.290;2023-12-04T05:15:45;8.32;;;5.50;;
43152;SDS011;28756;49.064;9.290;2023-12-04T05:18:11;9.82;;;6.45;;
43152;SDS011;28756;49.064;9.290;2023-12-04T05:20:36;12.05;;;7.78;;
43152;SDS011;28756;49.064;9.290;2023-12-04T05:23:02;11.30;;;7.38;;
43152;SDS011;28756;49.064;9.290;2023-12-04T05:25:28;9.57;;;6.38;;
43152;SDS011;28756;49.064;9.290;2023-12-04T05:27:53;10.68;;;6.75;;
43152;SDS011;28756;49.064;9.290;2023-12-04T05:30:19;22.02;;;12.38;;
43152;SDS011;28756;49.064;9.290;2023-12-04T05:32:44;14.25;;;9.10;;
43152;SDS011;28756;49.064;9.290;2023-12-04T05:35:10;13.63;;;7.88;;
43152;SDS011;28756;49.064;9.290;2023-12-04T05:37:35;11.35;;;6.90;;
43152;SDS011;28756;49.064;9.290;2023-12-04T05:40:01;11.88;;;7.70;;
43152;SDS011;28756;49.064;9.290;2023-12-04T05:42:28;13.55;;;8.07;;
43152;SDS011;28756;49.064;9.290;2023-12-04T05:44:54;12.48;;;7.65;;
43152;SDS011;28756;49.064;9.290;2023-12-04T05:47:20;12.25;;;7.68;;
43152;SDS011;28756;49.064;9.290;2023-12-04T05:49:46;10.73;;;6.85;;
43152;SDS011;28756;49.064;9.290;2023-12-04T05:52:12;12.20;;;7.20;;
43152;SDS011;28756;49.064;9.290;2023-12-04T05:54:37;13.18;;;7.95;;
43152;SDS011;28756;49.064;9.290;2023-12-04T05:57:03;11.68;;;7.15;;
43152;SDS011;28756;49.064;9.290;2023-12-04T05:59:28;13.85;;;8.25;;
43152;SDS011;28756;49.064;9.290;2023-12-04T06:01:54;12.00;;;7.43;;
43152;SDS011;28756;49.064;9.290;2023-12-04T06:04:20;12.07;;;6.97;;
43152;SDS011;28756;49.064;9.290;2023-12-04T06:06:45;10.95;;;6.95;;
43152;SDS011;28756;49.064;9.290;2023-12-04T06:09:11;11.05;;;7.07;;
43152;SDS011;28756;49.064;9.290;2023-12-04T06:11:36;10.40;;;6.63;;
43152;SDS011;28756;49.064;9.290;2023-12-04T06:14:02;9.98;;;6.47;;
43152;SDS011;28756;49.064;9.290;2023-12-04T06:16:27;9.02;;;6.25;;
43152;SDS011;28756;49.064;9.290;2023-12-04T06:18:53;11.48;;;6.97;;
43152;SDS011;28756;49.064;9.290;2023-12-04T06:21:19;8.68;;;5.90;;
43152;SDS011;28756;49.064;9.290;2023-12-04T06:23:45;10.82;;;7.13;;
43152;SDS011;28756;49.064;9.290;2023-12-04T06:26:10;12.80;;;7.45;;
43152;SDS011;28756;49.064;9.290;2023-12-04T06:28:37;15.18;;;9.98;;
43152;SDS011;28756;49.064;9.290;2023-12-04T06:31:03;17.75;;;10.55;;
43152;SDS011;28756;49.064;9.290;2023-12-04T06:33:29;33.22;;;17.33;;
43152;SDS011;28756;49.064;9.290;2023-12-04T06:35:55;87.93;;;37.70;;
43152;SDS011;28756;49.064;9.290;2023-12-04T06:38:22;73.63;;;33.45;;
43152;SDS011;28756;49.064;9.290;2023-12-04T06:40:49;115.63;;;49.58;;
43152;SDS011;28756;49.064;9.290;2023-12-04T06:43:15;90.72;;;41.10;;
43152;SDS011;28756;49.064;9.290;2023-12-04T06:45:43;61.25;;;29.40;;
43152;SDS011;28756;49.064;9.290;2023-12-04T06:48:10;31.80;;;17.35;;
43152;SDS011;28756;49.064;9.290;2023-12-04T06:50:38;29.63;;;15.80;;
43152;SDS011;28756;49.064;9.290;2023-12-04T06:53:05;21.00;;;12.98;;
43152;SDS011;28756;49.064;9.290;2023-12-04T06:55:30;18.75;;;11.32;;
43152;SDS011;28756;49.064;9.290;2023-12-04T06:57:56;21.95;;;12.52;;
43152;SDS011;28756;49.064;9.290;2023-12-04T07:00:21;16.90;;;10.15;;
43152;SDS011;28756;49.064;9.290;2023-12-04T07:02:47;16.38;;;10.07;;
43152;SDS011;28756;49.064;9.290;2023-12-04T07:05:12;16.52;;;8.82;;
43152;SDS011;28756;49.064;9.290;2023-12-04T07:07:38;13.65;;;8.32;;
43152;SDS011;28756;49.064;9.290;2023-12-04T07:10:04;17.73;;;8.93;;
43152;SDS011;28756;49.064;9.290;2023-12-04T07:12:30;12.18;;;7.90;;
43152;SDS011;28756;49.064;9.290;2023-12-04T07:14:55;13.38;;;8.00;;
43152;SDS011;28756;49.064;9.290;2023-12-04T07:17:21;15.55;;;9.32;;
43152;SDS011;28756;49.064;9.290;2023-12-04T07:19:47;12.48;;;7.43;;
43152;SDS011;28756;49.064;9.290;2023-12-04T07:22:12;12.32;;;7.40;;
43152;SDS011;28756;49.064;9.290;2023-12-04T07:24:38;9.90;;;6.82;;
43152;SDS011;28756;49.064;9.290;2023-12-04T07:27:04;10.65;;;7.00;;
43152;SDS011;28756;49.064;9.290;2023-12-04T07:29:30;12.25;;;7.47;;
43152;SDS011;28756;49.064;9.290;2023-12-04T07:31:55;12.60;;;7.90;;
43152;SDS011;28756;49.064;9.290;2023-12-04T07:34:21;13.80;;;8.73;;
43152;SDS011;28756;49.064;9.290;2023-12-04T07:36:46;13.50;;;8.52;;
43152;SDS011;28756;49.064;9.290;2023-12-04T07:39:13;14.23;;;8.70;;
43152;SDS011;28756;49.064;9.290;2023-12-04T07:41:39;11.10;;;7.50;;
43152;SDS011;28756;49.064;9.290;2023-12-04T07:44:05;12.38;;;7.82;;
43152;SDS011;28756;49.064;9.290;2023-12-04T07:46:31;13.07;;;8.00;;
43152;SDS011;28756;49.064;9.290;2023-12-04T07:48:57;12.32;;;7.72;;
43152;SDS011;28756;49.064;9.290;2023-12-04T07:51:23;10.40;;;7.20;;
43152;SDS011;28756;49.064;9.290;2023-12-04T07:53:48;10.13;;;5.80;;
43152;SDS011;28756;49.064;9.290;2023-12-04T07:56:14;10.32;;;6.55;;
43152;SDS011;28756;49.064;9.290;2023-12-04T07:58:39;12.55;;;7.40;;
43152;SDS011;28756;49.064;9.290;2023-12-04T08:01:05;12.13;;;7.50;;
43152;SDS011;28756;49.064;9.290;2023-12-04T08:03:31;13.30;;;8.07;;
43152;SDS011;28756;49.064;9.290;2023-12-04T08:05:57;15.93;;;8.85;;
43152;SDS011;28756;49.064;9.290;2023-12-04T08:08:23;15.23;;;9.05;;
43152;SDS011;28756;49.064;9.290;2023-12-04T08:10:49;14.93;;;9.07;;
43152;SDS011;28756;49.064;9.290;2023-12-04T08:13:15;14.07;;;8.63;;
43152;SDS011;28756;49.064;9.290;2023-12-04T08:15:41;15.57;;;8.60;;
43152;SDS011;28756;49.064;9.290;2023-12-04T08:18:07;14.00;;;8.93;;
43152;SDS011;28756;49.064;9.290;2023-12-04T08:20:32;11.93;;;7.82;;
43152;SDS011;28756;49.064;9.290;2023-12-04T08:22:58;11.45;;;7.55;;
43152;SDS011;28756;49.064;9.290;2023-12-04T08:25:24;11.93;;;7.45;;
43152;SDS011;28756;49.064;9.290;2023-12-04T08:27:49;10.05;;;6.38;;
43152;SDS011;28756;49.064;9.290;2023-12-04T08:30:16;15.90;;;8.75;;
43152;SDS011;28756;49.064;9.290;2023-12-04T08:32:41;19.55;;;9.50;;
43152;SDS011;28756;49.064;9.290;2023-12-04T08:35:07;15.57;;;8.63;;
43152;SDS011;28756;49.064;9.290;2023-12-04T08:37:33;16.35;;;9.45;;
43152;SDS011;28756;49.064;9.290;2023-12-04T08:39:58;13.60;;;8.48;;
43152;SDS011;28756;49.064;9.290;2023-12-04T08:42:24;15.00;;;7.95;;
43152;SDS011;28756;49.064;9.290;2023-12-04T08:44:51;14.85;;;8.30;;
43152;SDS011;28756;49.064;9.290;2023-12-04T08:47:16;13.02;;;7.53;;
43152;SDS011;28756;49.064;9.290;2023-12-04T08:49:42;12.77;;;8.20;;
43152;SDS011;28756;49.064;9.290;2023-12-04T08:52:08;14.60;;;7.95;;
43152;SDS011;28756;49.064;9.290;2023-12-04T08:54:34;12.55;;;7.88;;
43152;SDS011;28756;49.064;9.290;2023-12-04T08:56:59;15.07;;;8.35;;
43152;SDS011;28756;49.064;9.290;2023-12-04T08:59:25;12.05;;;7.30;;
43152;SDS011;28756;49.064;9.290;2023-12-04T09:01:51;13.00;;;8.15;;
43152;SDS011;28756;49.064;9.290;2023-12-04T09:04:16;11.63;;;7.20;;
43152;SDS011;28756;49.064;9.290;2023-12-04T09:06:42;12.45;;;7.82;;
43152;SDS011;28756;49.064;9.290;2023-12-04T09:09:08;11.55;;;7.63;;
43152;SDS011;28756;49.064;9.290;2023-12-04T09:11:33;12.18;;;7.93;;
43152;SDS011;28756;49.064;9.290;2023-12-04T09:13:59;10.93;;;7.18;;
43152;SDS011;28756;49.064;9.290;2023-12-04T09:16:25;11.45;;;7.20;;
43152;SDS011;28756;49.064;9.290;2023-12-04T09:18:50;9.93;;;6.45;;
43152;SDS011;28756;49.064;9.290;2023-12-04T09:21:18;9.98;;;6.45;;
43152;SDS011;28756;49.064;9.290;2023-12-04T09:23:43;10.18;;;6.68;;
43152;SDS011;28756;49.064;9.290;2023-12-04T09:26:14;10.70;;;6.70;;
43152;SDS011;28756;49.064;9.290;2023-12-04T09:28:41;11.27;;;6.60;;
43152;SDS011;28756;49.064;9.290;2023-12-04T09:31:06;10.07;;;6.72;;
43152;SDS011;28756;49.064;9.290;2023-12-04T09:33:33;9.43;;;6.32;;
43152;SDS011;28756;49.064;9.290;2023-12-04T09:35:59;8.50;;;5.97;;
43152;SDS011;28756;49.064;9.290;2023-12-04T09:38:24;9.25;;;5.72;;
43152;SDS011;28756;49.064;9.290;2023-12-04T09:40:50;6.97;;;5.22;;
43152;SDS011;28756;49.064;9.290;2023-12-04T09:43:17;7.90;;;5.25;;
43152;SDS011;28756;49.064;9.290;2023-12-04T09:45:43;7.93;;;5.20;;
43152;SDS011;28756;49.064;9.290;2023-12-04T09:48:09;6.30;;;4.53;;
43152;SDS011;28756;49.064;9.290;2023-12-04T09:50:35;8.25;;;5.15;;
43152;SDS011;28756;49.064;9.290;2023-12-04T09:53:01;7.47;;;5.13;;
43152;SDS011;28756;49.064;9.290;2023-12-04T09:55:27;8.98;;;5.82;;
43152;SDS011;28756;49.064;9.290;2023-12-04T09:57:53;8.20;;;5.68;;
43152;SDS011;28756;49.064;9.290;2023-12-04T10:00:19;9.25;;;5.80;;
43152;SDS011;28756;49.064;9.290;2023-12-04T10:02:45;12.23;;;8.30;;
43152;SDS011;28756;49.064;9.290;2023-12-04T10:05:11;12.75;;;7.15;;
43152;SDS011;28756;49.064;9.290;2023-12-04T10:07:37;10.38;;;6.32;;
43152;SDS011;28756;49.064;9.290;2023-12-04T10:10:03;13.13;;;7.85;;
43152;SDS011;28756;49.064;9.290;2023-12-04T10:12:30;12.02;;;8.40;;
43152;SDS011;28756;49.064;9.290;2023-12-04T10:15:11;10.88;;;7.00;;
43152;SDS011;28756;49.064;9.290;2023-12-04T10:17:37;11.00;;;7.18;;
43152;SDS011;28756;49.064;9.290;2023-12-04T10:20:05;9.73;;;6.32;;
43152;SDS011;28756;49.064;9.290;2023-12-04T10:22:59;9.90;;;6.40;;
43152;SDS011;28756;49.064;9.290;2023-12-04T10:25:25;7.60;;;5.70;;
43152;SDS011;28756;49.064;9.290;2023-12-04T10:27:53;10.68;;;7.15;;
43152;SDS011;28756;49.064;9.290;2023-12-04T10:30:27;8.70;;;6.43;;
43152;SDS011;28756;49.064;9.290;2023-12-04T10:32:57;10.10;;;5.80;;
43152;SDS011;28756;49.064;9.290;2023-12-04T10:35:25;10.88;;;6.30;;
43152;SDS011;28756;49.064;9.290;2023-12-04T10:37:53;8.40;;;5.18;;
43152;SDS011;28756;49.064;9.290;2023-12-04T10:40:23;9.82;;;5.95;;
43152;SDS011;28756;49.064;9.290;2023-12-04T10:43:09;8.73;;;6.03;;
43152;SDS011;28756;49.064;9.290;2023-12-04T10:45:38;13.13;;;8.32;;
43152;SDS011;28756;49.064;9.290;2023-12-04T10:48:05;8.45;;;5.90;;
43152;SDS011;28756;49.064;9.290;2023-12-04T10:50:34;8.45;;;6.35;;
43152;SDS011;28756;49.064;9.290;2023-12-04T10:53:04;9.13;;;5.95;;
43152;SDS011;28756;49.064;9.290;2023-12-04T10:55:31;9.90;;;6.43;;
43152;SDS011;28756;49.064;9.290;2023-12-04T10:57:57;8.60;;;5.65;;
43152;SDS011;28756;49.064;9.290;2023-12-04T11:00:24;9.50;;;6.00;;
43152;SDS011;28756;49.064;9.290;2023-12-04T11:02:50;9.48;;;6.57;;
43152;SDS011;28756;49.064;9.290;2023-12-04T11:05:18;11.05;;;6.65;;
43152;SDS011;28756;49.064;9.290;2023-12-04T11:08:19;8.45;;;5.93;;
43152;SDS011;28756;49.064;9.290;2023-12-04T11:10:45;8.13;;;5.50;;
43152;SDS011;28756;49.064;9.290;2023-12-04T11:13:23;8.70;;;6.38;;
43152;SDS011;28756;49.064;9.290;2023-12-04T11:15:53;14.88;;;6.22;;
43152;SDS011;28756;49.064;9.290;2023-12-04T11:18:24;9.07;;;6.40;;
43152;SDS011;28756;49.064;9.290;2023-12-04T11:20:53;14.40;;;10.13;;
43152;SDS011;28756;49.064;9.290;2023-12-04T11:23:21;12.73;;;9.63;;
43152;SDS011;28756;49.064;9.290;2023-12-04T11:25:47;9.68;;;7.20;;
43152;SDS011;28756;49.064;9.290;2023-12-04T11:28:13;10.23;;;7.18;;
43152;SDS011;28756;49.064;9.290;2023-12-04T11:30:39;7.95;;;5.88;;
43152;SDS011;28756;49.064;9.290;2023-12-04T11:33:05;7.57;;;5.25;;
43152;SDS011;28756;49.064;9.290;2023-12-04T11:35:30;8.57;;;5.75;;
43152;SDS011;28756;49.064;9.290;2023-12-04T11:37:59;12.48;;;4.90;;
43152;SDS011;28756;49.064;9.290;2023-12-04T11:40:24;7.50;;;5.53;;
43152;SDS011;28756;49.064;9.290;2023-12-04T11:42:51;6.80;;;4.90;;
43152;SDS011;28756;49.064;9.290;2023-12-04T11:45:18;9.07;;;5.38;;
43152;SDS011;28756;49.064;9.290;2023-12-04T11:47:55;9.05;;;6.28;;
43152;SDS011;28756;49.064;9.290;2023-12-04T11:50:21;8.07;;;5.57;;
43152;SDS011;28756;49.064;9.290;2023-12-04T11:52:50;10.27;;;6.07;;
43152;SDS011;28756;49.064;9.290;2023-12-04T11:55:17;10.73;;;6.93;;
43152;SDS011;28756;49.064;9.290;2023-12-04T11:57:43;10.95;;;6.85;;
43152;SDS011;28756;49.064;9.290;2023-12-04T12:03:02;13.80;;;7.65;;
43152;SDS011;28756;49.064;9.290;2023-12-04T12:05:31;13.48;;;6.78;;
43152;SDS011;28756;49.064;9.290;2023-12-04T12:08:05;12.80;;;7.57;;
43152;SDS011;28756;49.064;9.290;2023-12-04T12:10:31;9.63;;;6.18;;
43152;SDS011;28756;49.064;9.290;2023-12-04T12:12:57;11.63;;;7.25;;
43152;SDS011;28756;49.064;9.290;2023-12-04T12:15:23;8.85;;;6.40;;
43152;SDS011;28756;49.064;9.290;2023-12-04T12:17:49;8.82;;;6.35;;
43152;SDS011;28756;49.064;9.290;2023-12-04T12:20:16;8.77;;;5.93;;
43152;SDS011;28756;49.064;9.290;2023-12-04T12:22:42;10.43;;;7.00;;
43152;SDS011;28756;49.064;9.290;2023-12-04T12:25:09;8.68;;;6.50;;
43152;SDS011;28756;49.064;9.290;2023-12-04T12:27:36;10.25;;;7.10;;
43152;SDS011;28756;49.064;9.290;2023-12-04T12:30:02;9.85;;;6.40;;
43152;SDS011;28756;49.064;9.290;2023-12-04T12:32:30;11.60;;;7.53;;
43152;SDS011;28756;49.064;9.290;2023-12-04T12:34:56;11.57;;;8.00;;
43152;SDS011;28756;49.064;9.290;2023-12-04T12:37:22;14.35;;;8.98;;
43152;SDS011;28756;49.064;9.290;2023-12-04T12:39:47;11.60;;;7.93;;
43152;SDS011;28756;49.064;9.290;2023-12-04T12:42:26;11.82;;;8.38;;
43152;SDS011;28756;49.064;9.290;2023-12-04T12:44:59;12.45;;;8.75;;
43152;SDS011;28756;49.064;9.290;2023-12-04T12:47:25;13.25;;;9.35;;
43152;SDS011;28756;49.064;9.290;2023-12-04T12:49:51;12.63;;;9.18;;
43152;SDS011;28756;49.064;9.290;2023-12-04T12:52:17;14.15;;;9.52;;
43152;SDS011;28756;49.064;9.290;2023-12-04T12:54:43;16.15;;;9.90;;
43152;SDS011;28756;49.064;9.290;2023-12-04T12:57:09;14.07;;;9.43;;
43152;SDS011;28756;49.064;9.290;2023-12-04T12:59:37;14.98;;;9.52;;
43152;SDS011;28756;49.064;9.290;2023-12-04T13:02:04;16.73;;;10.57;;
43152;SDS011;28756;49.064;9.290;2023-12-04T13:04:36;18.73;;;11.23;;
43152;SDS011;28756;49.064;9.290;2023-12-04T13:07:03;20.25;;;11.73;;
43152;SDS011;28756;49.064;9.290;2023-12-04T13:09:31;18.02;;;10.82;;
43152;SDS011;28756;49.064;9.290;2023-12-04T13:11:57;17.95;;;11.15;;
43152;SDS011;28756;49.064;9.290;2023-12-04T13:14:24;16.17;;;10.32;;
43152;SDS011;28756;49.064;9.290;2023-12-04T13:16:50;16.95;;;10.10;;
43152;SDS011;28756;49.064;9.290;2023-12-04T13:19:15;14.40;;;9.82;;
43152;SDS011;28756;49.064;9.290;2023-12-04T13:21:42;14.82;;;9.32;;
43152;SDS011;28756;49.064;9.290;2023-12-04T13:24:08;15.65;;;10.10;;
43152;SDS011;28756;49.064;9.290;2023-12-04T13:26:35;12.43;;;9.27;;
43152;SDS011;28756;49.064;9.290;2023-12-04T13:29:02;12.98;;;9.30;;
43152;SDS011;28756;49.064;9.290;2023-12-04T13:31:27;14.68;;;9.45;;
43152;SDS011;28756;49.064;9.290;2023-12-04T13:33:53;10.82;;;8.10;;
43152;SDS011;28756;49.064;9.290;2023-12-04T13:36:18;11.38;;;7.88;;
43152;SDS011;28756;49.064;9.290;2023-12-04T13:38:45;17.33;;;11.43;;
43152;SDS011;28756;49.064;9.290;2023-12-04T13:41:11;14.15;;;10.23;;
43152;SDS011;28756;49.064;9.290;2023-12-04T13:43:55;12.55;;;8.55;;
43152;SDS011;28756;49.064;9.290;2023-12-04T13:46:22;11.65;;;8.18;;
43152;SDS011;28756;49.064;9.290;2023-12-04T13:48:48;13.45;;;9.07;;
43152;SDS011;28756;49.064;9.290;2023-12-04T13:51:13;11.05;;;8.23;;
43152;SDS011;28756;49.064;9.290;2023-12-04T13:53:39;11.23;;;7.82;;
43152;SDS011;28756;49.064;9.290;2023-12-04T13:56:10;15.73;;;9.35;;
43152;SDS011;28756;49.064;9.290;2023-12-04T13:58:48;10.68;;;7.90;;
43152;SDS011;28756;49.064;9.290;2023-12-04T14:01:24;12.45;;;9.38;;
43152;SDS011;28756;49.064;9.290;2023-12-04T14:03:53;12.30;;;8.50;;
43152;SDS011;28756;49.064;9.290;2023-12-04T14:06:21;13.10;;;10.02;;
43152;SDS011;28756;49.064;9.290;2023-12-04T14:08:47;19.15;;;13.93;;
43152;SDS011;28756;49.064;9.290;2023-12-04T14:11:12;17.65;;;12.75;;
43152;SDS011;28756;49.064;9.290;2023-12-04T14:13:39;16.67;;;12.05;;
43152;SDS011;28756;49.064;9.290;2023-12-04T14:16:05;13.85;;;9.63;;
43152;SDS011;28756;49.064;9.290;2023-12-04T14:18:31;14.75;;;9.98;;
43152;SDS011;28756;49.064;9.290;2023-12-04T14:20:57;12.68;;;9.00;;
43152;SDS011;28756;49.064;9.290;2023-12-04T14:23:22;11.93;;;8.82;;
43152;SDS011;28756;49.064;9.290;2023-12-04T14:25:48;12.88;;;7.90;;
43152;SDS011;28756;49.064;9.290;2023-12-04T14:28:14;15.40;;;11.27;;
43152;SDS011;28756;49.064;9.290;2023-12-04T14:30:39;13.00;;;9.23;;
43152;SDS011;28756;49.064;9.290;2023-12-04T14:33:05;10.80;;;8.15;;
43152;SDS011;28756;49.064;9.290;2023-12-04T14:35:31;11.52;;;8.55;;
43152;SDS011;28756;49.064;9.290;2023-12-04T14:37:57;10.93;;;7.85;;